sensor_id;sensor_type;location;lat;lon;timestamp;P1;durP1;ratioP1;P2;durP2;ratioP2
24547;SDS011;12713;51.624;4.924;2022-09-09T00:06:32;10.73;;;5.90;;
24547;SDS011;12713;51.624;4.924;2022-09-09T00:11:29;7.78;;;6.10;;
24547;SDS011;12713;51.624;4.924;2022-09-09T00:13:56;8.93;;;6.20;;
24547;SDS011;12713;51.624;4.924;2022-09-09T00:16:28;8.13;;;6.07;;
24547;SDS011;12713;51.624;4.924;2022-09-09T00:21:36;11.10;;;9.27;;
24547;SDS011;12713;51.624;4.924;2022-09-09T00:24:10;8.88;;;7.20;;
24547;SDS011;12713;51.624;4.924;2022-09-09T00:26:40;6.13;;;4.65;;
24547;SDS011;12713;51.624;4.924;2022-09-09T00:29:14;9.18;;;5.25;;
24547;SDS011;12713;51.624;4.924;2022-09-09T00:31:44;11.20;;;7.70;;
24547;SDS011;12713;51.624;4.924;2022-09-09T00:34:21;8.68;;;6.03;;
24547;SDS011;12713;51.624;4.924;2022-09-09T00:36:49;12.20;;;7.20;;
24547;SDS011;12713;51.624;4.924;2022-09-09T00:39:39;9.95;;;6.93;;
24547;SDS011;12713;51.624;4.924;2022-09-09T00:44:34;6.85;;;5.85;;
24547;SDS011;12713;51.624;4.924;2022-09-09T00:49:49;14.55;;;7.28;;
24547;SDS011;12713;51.624;4.924;2022-09-09T00:54:48;12.00;;;8.85;;
24547;SDS011;12713;51.624;4.924;2022-09-09T00:59:52;11.23;;;8.73;;
24547;SDS011;12713;51.624;4.924;2022-09-09T01:02:29;10.38;;;5.90;;
24547;SDS011;12713;51.624;4.924;2022-09-09T01:07:44;11.95;;;5.35;;
24547;SDS011;12713;51.624;4.924;2022-09-09T01:10:15;11.05;;;7.22;;
24547;SDS011;12713;51.624;4.924;2022-09-09T01:12:46;19.30;;;10.30;;
24547;SDS011;12713;51.624;4.924;2022-09-09T01:15:26;10.98;;;7.93;;
24547;SDS011;12713;51.624;4.924;2022-09-09T01:17:57;15.15;;;10.25;;
24547;SDS011;12713;51.624;4.924;2022-09-09T01:20:25;15.07;;;10.75;;
24547;SDS011;12713;51.624;4.924;2022-09-09T01:28:08;13.37;;;10.33;;
24547;SDS011;12713;51.624;4.924;2022-09-09T01:30:38;19.42;;;12.60;;
24547;SDS011;12713;51.624;4.924;2022-09-09T01:33:04;12.60;;;7.47;;
24547;SDS011;12713;51.624;4.924;2022-09-09T01:38:05;11.27;;;5.97;;
24547;SDS011;12713;51.624;4.924;2022-09-09T01:40:31;7.55;;;4.40;;
24547;SDS011;12713;51.624;4.924;2022-09-09T01:42:58;14.35;;;7.40;;
24547;SDS011;12713;51.624;4.924;2022-09-09T01:45:24;8.60;;;5.85;;
24547;SDS011;12713;51.624;4.924;2022-09-09T01:47:51;7.85;;;5.85;;
24547;SDS011;12713;51.624;4.924;2022-09-09T01:50:18;8.98;;;5.63;;
24547;SDS011;12713;51.624;4.924;2022-09-09T01:52:45;6.50;;;4.85;;
24547;SDS011;12713;51.624;4.924;2022-09-09T01:55:14;5.00;;;3.80;;
24547;SDS011;12713;51.624;4.924;2022-09-09T01:57:54;10.27;;;6.38;;
24547;SDS011;12713;51.624;4.924;2022-09-09T02:00:22;9.63;;;5.88;;
24547;SDS011;12713;51.624;4.924;2022-09-09T02:07:50;14.07;;;7.00;;
24547;SDS011;12713;51.624;4.924;2022-09-09T02:10:21;15.07;;;8.02;;
24547;SDS011;12713;51.624;4.924;2022-09-09T02:12:51;14.15;;;7.28;;
24547;SDS011;12713;51.624;4.924;2022-09-09T02:15:21;16.33;;;8.82;;
24547;SDS011;12713;51.624;4.924;2022-09-09T02:17:49;10.95;;;8.27;;
24547;SDS011;12713;51.624;4.924;2022-09-09T02:20:16;15.23;;;9.02;;
24547;SDS011;12713;51.624;4.924;2022-09-09T02:22:43;13.20;;;8.70;;
24547;SDS011;12713;51.624;4.924;2022-09-09T02:25:12;15.20;;;12.00;;
24547;SDS011;12713;51.624;4.924;2022-09-09T02:27:40;13.75;;;10.48;;
24547;SDS011;12713;51.624;4.924;2022-09-09T02:30:07;14.40;;;9.95;;
24547;SDS011;12713;51.624;4.924;2022-09-09T02:32:34;14.93;;;9.50;;
24547;SDS011;12713;51.624;4.924;2022-09-09T02:35:05;12.20;;;8.43;;
24547;SDS011;12713;51.624;4.924;2022-09-09T02:37:34;16.13;;;10.25;;
24547;SDS011;12713;51.624;4.924;2022-09-09T02:40:04;12.32;;;9.25;;
24547;SDS011;12713;51.624;4.924;2022-09-09T02:42:31;7.88;;;7.07;;
24547;SDS011;12713;51.624;4.924;2022-09-09T02:44:57;9.45;;;5.88;;
24547;SDS011;12713;51.624;4.924;2022-09-09T02:47:33;12.07;;;7.25;;
24547;SDS011;12713;51.624;4.924;2022-09-09T02:55:06;9.18;;;5.43;;
24547;SDS011;12713;51.624;4.924;2022-09-09T02:57:33;10.77;;;5.72;;
24547;SDS011;12713;51.624;4.924;2022-09-09T03:00:00;9.18;;;5.72;;
24547;SDS011;12713;51.624;4.924;2022-09-09T03:02:26;8.57;;;4.80;;
24547;SDS011;12713;51.624;4.924;2022-09-09T03:04:52;10.98;;;7.13;;
24547;SDS011;12713;51.624;4.924;2022-09-09T03:07:19;14.30;;;9.27;;
24547;SDS011;12713;51.624;4.924;2022-09-09T03:09:45;9.95;;;7.28;;
24547;SDS011;12713;51.624;4.924;2022-09-09T03:12:11;12.93;;;7.65;;
24547;SDS011;12713;51.624;4.924;2022-09-09T03:14:37;10.63;;;7.15;;
24547;SDS011;12713;51.624;4.924;2022-09-09T03:17:04;8.95;;;6.85;;
24547;SDS011;12713;51.624;4.924;2022-09-09T03:19:30;12.10;;;7.15;;
24547;SDS011;12713;51.624;4.924;2022-09-09T03:21:57;9.68;;;6.10;;
24547;SDS011;12713;51.624;4.924;2022-09-09T03:24:23;11.55;;;7.53;;
24547;SDS011;12713;51.624;4.924;2022-09-09T03:26:49;10.60;;;7.32;;
24547;SDS011;12713;51.624;4.924;2022-09-09T03:29:15;9.20;;;6.22;;
24547;SDS011;12713;51.624;4.924;2022-09-09T03:31:43;16.95;;;10.27;;
24547;SDS011;12713;51.624;4.924;2022-09-09T03:34:09;15.52;;;12.00;;
24547;SDS011;12713;51.624;4.924;2022-09-09T03:36:35;18.00;;;11.38;;
24547;SDS011;12713;51.624;4.924;2022-09-09T03:39:01;13.02;;;8.70;;
24547;SDS011;12713;51.624;4.924;2022-09-09T03:41:28;12.23;;;9.55;;
24547;SDS011;12713;51.624;4.924;2022-09-09T03:43:54;17.50;;;12.80;;
24547;SDS011;12713;51.624;4.924;2022-09-09T03:46:20;16.40;;;11.32;;
24547;SDS011;12713;51.624;4.924;2022-09-09T03:48:47;15.05;;;10.25;;
24547;SDS011;12713;51.624;4.924;2022-09-09T03:51:13;13.20;;;8.20;;
24547;SDS011;12713;51.624;4.924;2022-09-09T03:53:40;13.27;;;8.88;;
24547;SDS011;12713;51.624;4.924;2022-09-09T03:56:06;11.23;;;7.07;;
24547;SDS011;12713;51.624;4.924;2022-09-09T03:58:32;12.30;;;9.10;;
24547;SDS011;12713;51.624;4.924;2022-09-09T04:00:59;15.60;;;9.32;;
24547;SDS011;12713;51.624;4.924;2022-09-09T04:03:26;15.73;;;7.78;;
24547;SDS011;12713;51.624;4.924;2022-09-09T04:05:52;16.30;;;10.75;;
24547;SDS011;12713;51.624;4.924;2022-09-09T04:08:19;21.73;;;11.70;;
24547;SDS011;12713;51.624;4.924;2022-09-09T04:10:46;13.07;;;9.50;;
24547;SDS011;12713;51.624;4.924;2022-09-09T04:13:12;17.73;;;11.35;;
24547;SDS011;12713;51.624;4.924;2022-09-09T04:15:39;15.40;;;9.93;;
24547;SDS011;12713;51.624;4.924;2022-09-09T04:18:06;13.73;;;7.22;;
24547;SDS011;12713;51.624;4.924;2022-09-09T04:20:32;16.13;;;7.43;;
24547;SDS011;12713;51.624;4.924;2022-09-09T04:22:58;18.23;;;7.88;;
24547;SDS011;12713;51.624;4.924;2022-09-09T04:25:24;15.77;;;9.50;;
24547;SDS011;12713;51.624;4.924;2022-09-09T04:27:56;16.30;;;9.82;;
24547;SDS011;12713;51.624;4.924;2022-09-09T04:32:49;19.75;;;12.98;;
24547;SDS011;12713;51.624;4.924;2022-09-09T04:35:18;24.75;;;12.32;;
24547;SDS011;12713;51.624;4.924;2022-09-09T04:37:45;22.13;;;11.60;;
24547;SDS011;12713;51.624;4.924;2022-09-09T04:40:11;20.45;;;11.38;;
24547;SDS011;12713;51.624;4.924;2022-09-09T04:42:38;20.52;;;14.02;;
24547;SDS011;12713;51.624;4.924;2022-09-09T04:45:05;16.23;;;9.77;;
24547;SDS011;12713;51.624;4.924;2022-09-09T04:47:36;17.00;;;9.55;;
24547;SDS011;12713;51.624;4.924;2022-09-09T04:50:02;16.38;;;9.55;;
24547;SDS011;12713;51.624;4.924;2022-09-09T04:52:28;21.02;;;9.10;;
24547;SDS011;12713;51.624;4.924;2022-09-09T04:54:54;15.43;;;7.53;;
24547;SDS011;12713;51.624;4.924;2022-09-09T04:57:20;15.73;;;6.15;;
24547;SDS011;12713;51.624;4.924;2022-09-09T04:59:46;14.23;;;8.27;;
24547;SDS011;12713;51.624;4.924;2022-09-09T05:02:13;18.65;;;7.93;;
24547;SDS011;12713;51.624;4.924;2022-09-09T05:04:39;20.20;;;11.02;;
24547;SDS011;12713;51.624;4.924;2022-09-09T05:07:05;21.35;;;11.52;;
24547;SDS011;12713;51.624;4.924;2022-09-09T05:09:31;25.52;;;13.85;;
24547;SDS011;12713;51.624;4.924;2022-09-09T05:11:57;16.75;;;12.23;;
24547;SDS011;12713;51.624;4.924;2022-09-09T05:14:24;21.08;;;12.82;;
24547;SDS011;12713;51.624;4.924;2022-09-09T05:16:51;22.98;;;12.80;;
24547;SDS011;12713;51.624;4.924;2022-09-09T05:19:17;21.92;;;13.13;;
24547;SDS011;12713;51.624;4.924;2022-09-09T05:21:44;18.95;;;10.60;;
24547;SDS011;12713;51.624;4.924;2022-09-09T05:24:10;20.48;;;10.20;;
24547;SDS011;12713;51.624;4.924;2022-09-09T05:26:37;10.05;;;5.57;;
24547;SDS011;12713;51.624;4.924;2022-09-09T05:29:03;15.82;;;5.05;;
24547;SDS011;12713;51.624;4.924;2022-09-09T05:31:31;16.63;;;8.88;;
24547;SDS011;12713;51.624;4.924;2022-09-09T05:33:57;19.48;;;6.63;;
24547;SDS011;12713;51.624;4.924;2022-09-09T05:36:24;18.90;;;7.03;;
24547;SDS011;12713;51.624;4.924;2022-09-09T05:38:50;13.07;;;4.93;;
24547;SDS011;12713;51.624;4.924;2022-09-09T05:41:18;17.77;;;6.75;;
24547;SDS011;12713;51.624;4.924;2022-09-09T05:43:45;20.50;;;7.03;;
24547;SDS011;12713;51.624;4.924;2022-09-09T05:46:16;12.98;;;5.38;;
24547;SDS011;12713;51.624;4.924;2022-09-09T05:48:43;13.88;;;5.43;;
24547;SDS011;12713;51.624;4.924;2022-09-09T05:51:12;17.65;;;6.63;;
24547;SDS011;12713;51.624;4.924;2022-09-09T05:53:40;10.35;;;3.75;;
24547;SDS011;12713;51.624;4.924;2022-09-09T05:56:11;15.10;;;5.45;;
24547;SDS011;12713;51.624;4.924;2022-09-09T05:58:42;14.90;;;5.50;;
24547;SDS011;12713;51.624;4.924;2022-09-09T06:01:15;17.73;;;5.70;;
24547;SDS011;12713;51.624;4.924;2022-09-09T06:03:42;13.18;;;6.07;;
24547;SDS011;12713;51.624;4.924;2022-09-09T06:06:09;15.18;;;6.00;;
24547;SDS011;12713;51.624;4.924;2022-09-09T06:08:37;15.32;;;5.25;;
24547;SDS011;12713;51.624;4.924;2022-09-09T06:11:07;12.23;;;3.92;;
24547;SDS011;12713;51.624;4.924;2022-09-09T06:13:34;14.98;;;4.10;;
24547;SDS011;12713;51.624;4.924;2022-09-09T06:16:02;13.20;;;4.47;;
24547;SDS011;12713;51.624;4.924;2022-09-09T06:18:29;14.52;;;4.18;;
24547;SDS011;12713;51.624;4.924;2022-09-09T06:20:59;10.82;;;3.70;;
24547;SDS011;12713;51.624;4.924;2022-09-09T06:23:25;12.43;;;3.50;;
24547;SDS011;12713;51.624;4.924;2022-09-09T06:25:52;15.13;;;3.95;;
24547;SDS011;12713;51.624;4.924;2022-09-09T06:28:25;12.10;;;3.75;;
24547;SDS011;12713;51.624;4.924;2022-09-09T06:31:02;13.00;;;3.38;;
24547;SDS011;12713;51.624;4.924;2022-09-09T06:33:36;13.88;;;3.60;;
24547;SDS011;12713;51.624;4.924;2022-09-09T06:36:06;15.70;;;4.35;;
24547;SDS011;12713;51.624;4.924;2022-09-09T06:38:32;17.33;;;4.90;;
24547;SDS011;12713;51.624;4.924;2022-09-09T06:40:59;12.52;;;4.22;;
24547;SDS011;12713;51.624;4.924;2022-09-09T06:43:25;15.10;;;4.53;;
24547;SDS011;12713;51.624;4.924;2022-09-09T06:48:23;12.50;;;4.05;;
24547;SDS011;12713;51.624;4.924;2022-09-09T06:51:33;12.10;;;4.53;;
24547;SDS011;12713;51.624;4.924;2022-09-09T06:53:51;16.90;;;4.05;;
24547;SDS011;12713;51.624;4.924;2022-09-09T06:58:48;14.93;;;4.38;;
24547;SDS011;12713;51.624;4.924;2022-09-09T07:01:15;11.70;;;4.13;;
24547;SDS011;12713;51.624;4.924;2022-09-09T07:03:44;20.35;;;5.65;;
24547;SDS011;12713;51.624;4.924;2022-09-09T07:06:14;14.18;;;4.95;;
24547;SDS011;12713;51.624;4.924;2022-09-09T07:08:42;14.55;;;4.57;;
24547;SDS011;12713;51.624;4.924;2022-09-09T07:11:08;11.32;;;4.80;;
24547;SDS011;12713;51.624;4.924;2022-09-09T07:13:34;12.98;;;4.10;;
24547;SDS011;12713;51.624;4.924;2022-09-09T07:16:07;15.48;;;3.63;;
24547;SDS011;12713;51.624;4.924;2022-09-09T07:21:00;14.60;;;4.32;;
24547;SDS011;12713;51.624;4.924;2022-09-09T07:23:27;8.15;;;3.65;;
24547;SDS011;12713;51.624;4.924;2022-09-09T07:25:53;13.43;;;4.55;;
24547;SDS011;12713;51.624;4.924;2022-09-09T07:28:19;9.15;;;3.33;;
24547;SDS011;12713;51.624;4.924;2022-09-09T07:30:59;12.00;;;3.90;;
24547;SDS011;12713;51.624;4.924;2022-09-09T07:33:28;10.02;;;3.30;;
24547;SDS011;12713;51.624;4.924;2022-09-09T07:36:08;10.43;;;3.78;;
24547;SDS011;12713;51.624;4.924;2022-09-09T07:38:41;15.20;;;4.00;;
24547;SDS011;12713;51.624;4.924;2022-09-09T07:41:09;10.38;;;3.80;;
24547;SDS011;12713;51.624;4.924;2022-09-09T07:43:37;12.43;;;3.78;;
24547;SDS011;12713;51.624;4.924;2022-09-09T07:46:04;13.63;;;3.65;;
24547;SDS011;12713;51.624;4.924;2022-09-09T07:48:31;15.65;;;4.00;;
24547;SDS011;12713;51.624;4.924;2022-09-09T07:51:10;12.73;;;3.40;;
24547;SDS011;12713;51.624;4.924;2022-09-09T07:53:37;12.80;;;4.40;;
24547;SDS011;12713;51.624;4.924;2022-09-09T07:56:05;18.05;;;5.20;;
24547;SDS011;12713;51.624;4.924;2022-09-09T07:58:31;15.32;;;4.03;;
24547;SDS011;12713;51.624;4.924;2022-09-09T08:00:57;14.90;;;3.83;;
24547;SDS011;12713;51.624;4.924;2022-09-09T08:03:23;18.98;;;5.78;;
24547;SDS011;12713;51.624;4.924;2022-09-09T08:05:49;10.07;;;3.35;;
24547;SDS011;12713;51.624;4.924;2022-09-09T08:08:16;15.93;;;3.83;;
24547;SDS011;12713;51.624;4.924;2022-09-09T08:10:42;15.38;;;4.95;;
24547;SDS011;12713;51.624;4.924;2022-09-09T08:13:08;18.27;;;4.00;;
24547;SDS011;12713;51.624;4.924;2022-09-09T08:15:34;14.10;;;4.43;;
24547;SDS011;12713;51.624;4.924;2022-09-09T08:18:03;14.40;;;4.88;;
24547;SDS011;12713;51.624;4.924;2022-09-09T08:20:29;15.77;;;4.03;;
24547;SDS011;12713;51.624;4.924;2022-09-09T08:22:55;11.70;;;3.30;;
24547;SDS011;12713;51.624;4.924;2022-09-09T08:25:21;11.32;;;4.45;;
24547;SDS011;12713;51.624;4.924;2022-09-09T08:27:47;12.77;;;5.10;;
24547;SDS011;12713;51.624;4.924;2022-09-09T08:30:13;15.02;;;5.15;;
24547;SDS011;12713;51.624;4.924;2022-09-09T08:32:39;14.18;;;4.50;;
24547;SDS011;12713;51.624;4.924;2022-09-09T08:35:06;16.75;;;3.72;;
24547;SDS011;12713;51.624;4.924;2022-09-09T08:37:32;12.75;;;4.22;;
24547;SDS011;12713;51.624;4.924;2022-09-09T08:39:58;12.38;;;3.90;;
24547;SDS011;12713;51.624;4.924;2022-09-09T08:42:29;10.23;;;4.00;;
24547;SDS011;12713;51.624;4.924;2022-09-09T08:50:28;13.13;;;3.78;;
24547;SDS011;12713;51.624;4.924;2022-09-09T08:55:24;9.52;;;2.75;;
24547;SDS011;12713;51.624;4.924;2022-09-09T08:57:52;14.75;;;4.00;;
24547;SDS011;12713;51.624;4.924;2022-09-09T09:00:19;14.18;;;4.28;;
24547;SDS011;12713;51.624;4.924;2022-09-09T09:05:25;10.73;;;3.45;;
24547;SDS011;12713;51.624;4.924;2022-09-09T09:10:45;10.98;;;3.35;;
24547;SDS011;12713;51.624;4.924;2022-09-09T09:13:17;13.55;;;3.40;;
24547;SDS011;12713;51.624;4.924;2022-09-09T09:15:47;12.70;;;3.47;;
24547;SDS011;12713;51.624;4.924;2022-09-09T09:18:14;15.30;;;3.30;;
24547;SDS011;12713;51.624;4.924;2022-09-09T09:23:13;14.23;;;4.00;;
24547;SDS011;12713;51.624;4.924;2022-09-09T09:25:41;13.82;;;4.32;;
24547;SDS011;12713;51.624;4.924;2022-09-09T09:28:16;9.57;;;5.35;;
24547;SDS011;12713;51.624;4.924;2022-09-09T09:30:44;11.95;;;4.82;;
24547;SDS011;12713;51.624;4.924;2022-09-09T09:33:23;12.20;;;4.10;;
24547;SDS011;12713;51.624;4.924;2022-09-09T09:35:52;14.55;;;4.10;;
24547;SDS011;12713;51.624;4.924;2022-09-09T09:40:48;14.43;;;4.80;;
24547;SDS011;12713;51.624;4.924;2022-09-09T09:43:18;13.63;;;4.40;;
24547;SDS011;12713;51.624;4.924;2022-09-09T09:45:45;8.60;;;3.83;;
24547;SDS011;12713;51.624;4.924;2022-09-09T09:48:12;11.88;;;4.50;;
24547;SDS011;12713;51.624;4.924;2022-09-09T09:50:49;11.60;;;3.45;;
24547;SDS011;12713;51.624;4.924;2022-09-09T09:53:17;12.93;;;3.60;;
24547;SDS011;12713;51.624;4.924;2022-09-09T09:55:50;9.88;;;3.40;;
24547;SDS011;12713;51.624;4.924;2022-09-09T09:58:18;10.18;;;3.40;;
24547;SDS011;12713;51.624;4.924;2022-09-09T10:00:48;12.05;;;3.03;;
24547;SDS011;12713;51.624;4.924;2022-09-09T10:03:28;15.48;;;3.35;;
24547;SDS011;12713;51.624;4.924;2022-09-09T10:05:55;11.55;;;3.33;;
24547;SDS011;12713;51.624;4.924;2022-09-09T10:08:22;9.27;;;3.10;;
24547;SDS011;12713;51.624;4.924;2022-09-09T10:10:53;11.60;;;3.78;;
24547;SDS011;12713;51.624;4.924;2022-09-09T10:13:26;10.77;;;3.95;;
24547;SDS011;12713;51.624;4.924;2022-09-09T10:21:32;13.55;;;3.58;;
24547;SDS011;12713;51.624;4.924;2022-09-09T10:26:35;9.88;;;3.33;;
24547;SDS011;12713;51.624;4.924;2022-09-09T10:31:47;9.53;;;3.70;;
24547;SDS011;12713;51.624;4.924;2022-09-09T10:36:53;14.80;;;3.97;;
24547;SDS011;12713;51.624;4.924;2022-09-09T10:39:35;9.00;;;3.75;;
24547;SDS011;12713;51.624;4.924;2022-09-09T10:42:06;11.38;;;3.70;;
24547;SDS011;12713;51.624;4.924;2022-09-09T10:47:05;11.68;;;3.95;;
24547;SDS011;12713;51.624;4.924;2022-09-09T10:52:26;12.30;;;3.72;;
24547;SDS011;12713;51.624;4.924;2022-09-09T10:54:58;11.38;;;4.32;;
24547;SDS011;12713;51.624;4.924;2022-09-09T10:59:53;12.82;;;4.45;;
24547;SDS011;12713;51.624;4.924;2022-09-09T11:04:49;9.00;;;3.75;;
24547;SDS011;12713;51.624;4.924;2022-09-09T11:07:37;7.20;;;3.65;;
24547;SDS011;12713;51.624;4.924;2022-09-09T11:10:06;11.68;;;3.95;;
24547;SDS011;12713;51.624;4.924;2022-09-09T11:12:37;13.95;;;4.63;;
24547;SDS011;12713;51.624;4.924;2022-09-09T11:15:20;9.43;;;3.58;;
24547;SDS011;12713;51.624;4.924;2022-09-09T11:17:46;10.95;;;4.40;;
24547;SDS011;12713;51.624;4.924;2022-09-09T11:20:15;12.98;;;4.60;;
24547;SDS011;12713;51.624;4.924;2022-09-09T11:23:01;14.77;;;4.15;;
24547;SDS011;12713;51.624;4.924;2022-09-09T11:25:30;6.72;;;3.67;;
24547;SDS011;12713;51.624;4.924;2022-09-09T11:31:07;9.27;;;3.72;;
24547;SDS011;12713;51.624;4.924;2022-09-09T11:41:49;11.32;;;3.70;;
24547;SDS011;12713;51.624;4.924;2022-09-09T11:44:28;9.55;;;4.15;;
24547;SDS011;12713;51.624;4.924;2022-09-09T11:46:55;9.88;;;3.30;;
24547;SDS011;12713;51.624;4.924;2022-09-09T11:51:53;10.90;;;3.70;;
24547;SDS011;12713;51.624;4.924;2022-09-09T11:54:32;11.10;;;3.75;;
24547;SDS011;12713;51.624;4.924;2022-09-09T11:57:00;9.77;;;3.13;;
24547;SDS011;12713;51.624;4.924;2022-09-09T11:59:30;7.95;;;3.58;;
24547;SDS011;12713;51.624;4.924;2022-09-09T12:07:03;9.65;;;3.28;;
24547;SDS011;12713;51.624;4.924;2022-09-09T12:17:17;7.90;;;3.25;;
24547;SDS011;12713;51.624;4.924;2022-09-09T12:19:44;9.70;;;3.00;;
24547;SDS011;12713;51.624;4.924;2022-09-09T12:22:27;14.82;;;3.90;;
24547;SDS011;12713;51.624;4.924;2022-09-09T12:25:05;10.43;;;2.78;;
24547;SDS011;12713;51.624;4.924;2022-09-09T12:27:40;10.45;;;2.55;;
24547;SDS011;12713;51.624;4.924;2022-09-09T12:30:14;8.10;;;2.67;;
24547;SDS011;12713;51.624;4.924;2022-09-09T12:32:41;9.70;;;2.42;;
24547;SDS011;12713;51.624;4.924;2022-09-09T12:35:10;5.97;;;2.38;;
24547;SDS011;12713;51.624;4.924;2022-09-09T12:37:53;10.15;;;2.88;;
24547;SDS011;12713;51.624;4.924;2022-09-09T12:42:48;9.57;;;3.30;;
24547;SDS011;12713;51.624;4.924;2022-09-09T12:45:22;10.65;;;3.90;;
24547;SDS011;12713;51.624;4.924;2022-09-09T12:50:51;5.18;;;2.50;;
24547;SDS011;12713;51.624;4.924;2022-09-09T12:53:22;9.90;;;2.55;;
24547;SDS011;12713;51.624;4.924;2022-09-09T12:55:51;10.57;;;3.20;;
24547;SDS011;12713;51.624;4.924;2022-09-09T12:58:18;8.90;;;2.00;;
24547;SDS011;12713;51.624;4.924;2022-09-09T13:00:51;8.23;;;2.13;;
24547;SDS011;12713;51.624;4.924;2022-09-09T13:03:18;6.85;;;1.90;;
24547;SDS011;12713;51.624;4.924;2022-09-09T13:05:45;11.23;;;2.15;;
24547;SDS011;12713;51.624;4.924;2022-09-09T13:08:12;9.60;;;2.40;;
24547;SDS011;12713;51.624;4.924;2022-09-09T13:13:11;6.88;;;2.00;;
24547;SDS011;12713;51.624;4.924;2022-09-09T13:15:38;6.60;;;2.08;;
24547;SDS011;12713;51.624;4.924;2022-09-09T13:18:06;7.35;;;2.28;;
24547;SDS011;12713;51.624;4.924;2022-09-09T13:20:33;4.65;;;2.05;;
24547;SDS011;12713;51.624;4.924;2022-09-09T13:22:59;10.70;;;2.03;;
24547;SDS011;12713;51.624;4.924;2022-09-09T13:25:26;4.32;;;1.75;;
24547;SDS011;12713;51.624;4.924;2022-09-09T13:33:02;5.22;;;1.60;;
24547;SDS011;12713;51.624;4.924;2022-09-09T13:35:34;7.15;;;1.92;;
24547;SDS011;12713;51.624;4.924;2022-09-09T13:38:10;8.93;;;1.98;;
24547;SDS011;12713;51.624;4.924;2022-09-09T13:40:52;11.63;;;2.25;;
24547;SDS011;12713;51.624;4.924;2022-09-09T13:43:20;7.65;;;1.60;;
24547;SDS011;12713;51.624;4.924;2022-09-09T13:45:57;6.53;;;1.42;;
24547;SDS011;12713;51.624;4.924;2022-09-09T13:48:27;4.20;;;1.35;;
24547;SDS011;12713;51.624;4.924;2022-09-09T13:50:57;3.53;;;1.38;;
24547;SDS011;12713;51.624;4.924;2022-09-09T13:53:23;3.33;;;1.27;;
24547;SDS011;12713;51.624;4.924;2022-09-09T13:55:50;4.18;;;1.45;;
24547;SDS011;12713;51.624;4.924;2022-09-09T13:58:19;5.90;;;1.77;;
24547;SDS011;12713;51.624;4.924;2022-09-09T14:00:52;6.05;;;1.80;;
24547;SDS011;12713;51.624;4.924;2022-09-09T14:03:24;3.45;;;1.27;;
24547;SDS011;12713;51.624;4.924;2022-09-09T14:05:50;6.18;;;1.60;;
24547;SDS011;12713;51.624;4.924;2022-09-09T14:08:20;4.00;;;1.90;;
24547;SDS011;12713;51.624;4.924;2022-09-09T14:10:47;2.65;;;1.27;;
24547;SDS011;12713;51.624;4.924;2022-09-09T14:13:13;5.57;;;1.75;;
24547;SDS011;12713;51.624;4.924;2022-09-09T14:15:39;5.50;;;1.60;;
24547;SDS011;12713;51.624;4.924;2022-09-09T14:18:05;3.70;;;0.80;;
24547;SDS011;12713;51.624;4.924;2022-09-09T14:20:31;4.38;;;1.42;;
24547;SDS011;12713;51.624;4.924;2022-09-09T14:22:57;3.95;;;1.35;;
24547;SDS011;12713;51.624;4.924;2022-09-09T14:25:23;4.47;;;1.55;;
24547;SDS011;12713;51.624;4.924;2022-09-09T14:27:49;3.63;;;1.17;;
24547;SDS011;12713;51.624;4.924;2022-09-09T14:30:16;2.75;;;1.33;;
24547;SDS011;12713;51.624;4.924;2022-09-09T14:32:42;2.83;;;1.17;;
24547;SDS011;12713;51.624;4.924;2022-09-09T14:35:08;4.32;;;1.48;;
24547;SDS011;12713;51.624;4.924;2022-09-09T14:37:34;4.93;;;1.40;;
24547;SDS011;12713;51.624;4.924;2022-09-09T14:40:00;6.35;;;1.45;;
24547;SDS011;12713;51.624;4.924;2022-09-09T14:42:26;5.53;;;1.60;;
24547;SDS011;12713;51.624;4.924;2022-09-09T14:44:54;6.13;;;1.92;;
24547;SDS011;12713;51.624;4.924;2022-09-09T14:47:20;2.30;;;1.52;;
24547;SDS011;12713;51.624;4.924;2022-09-09T14:49:47;6.13;;;1.80;;
24547;SDS011;12713;51.624;4.924;2022-09-09T14:52:29;8.88;;;2.13;;
24547;SDS011;12713;51.624;4.924;2022-09-09T14:54:55;3.33;;;1.20;;
24547;SDS011;12713;51.624;4.924;2022-09-09T14:57:21;4.55;;;1.60;;
24547;SDS011;12713;51.624;4.924;2022-09-09T14:59:48;5.25;;;1.58;;
24547;SDS011;12713;51.624;4.924;2022-09-09T15:02:15;5.10;;;1.50;;
24547;SDS011;12713;51.624;4.924;2022-09-09T15:04:41;3.53;;;1.60;;
24547;SDS011;12713;51.624;4.924;2022-09-09T15:07:07;5.20;;;1.75;;
24547;SDS011;12713;51.624;4.924;2022-09-09T15:09:33;3.67;;;1.88;;
24547;SDS011;12713;51.624;4.924;2022-09-09T15:11:59;2.65;;;1.42;;
24547;SDS011;12713;51.624;4.924;2022-09-09T15:14:26;6.43;;;1.70;;
24547;SDS011;12713;51.624;4.924;2022-09-09T15:16:52;4.20;;;1.60;;
24547;SDS011;12713;51.624;4.924;2022-09-09T15:19:18;5.35;;;1.50;;
24547;SDS011;12713;51.624;4.924;2022-09-09T15:21:44;4.40;;;1.50;;
24547;SDS011;12713;51.624;4.924;2022-09-09T15:24:10;7.07;;;2.17;;
24547;SDS011;12713;51.624;4.924;2022-09-09T15:26:38;4.38;;;1.45;;
24547;SDS011;12713;51.624;4.924;2022-09-09T15:29:04;4.63;;;1.23;;
24547;SDS011;12713;51.624;4.924;2022-09-09T15:31:32;5.00;;;1.52;;
24547;SDS011;12713;51.624;4.924;2022-09-09T15:33:59;3.78;;;1.83;;
24547;SDS011;12713;51.624;4.924;2022-09-09T15:36:29;3.58;;;1.17;;
24547;SDS011;12713;51.624;4.924;2022-09-09T15:38:57;1.75;;;1.10;;
24547;SDS011;12713;51.624;4.924;2022-09-09T15:41:23;3.95;;;1.30;;
24547;SDS011;12713;51.624;4.924;2022-09-09T15:43:50;3.97;;;1.20;;
24547;SDS011;12713;51.624;4.924;2022-09-09T15:48:43;4.25;;;1.40;;
24547;SDS011;12713;51.624;4.924;2022-09-09T15:51:09;3.85;;;1.40;;
24547;SDS011;12713;51.624;4.924;2022-09-09T15:53:39;1.65;;;1.02;;
24547;SDS011;12713;51.624;4.924;2022-09-09T15:56:05;2.92;;;1.08;;
24547;SDS011;12713;51.624;4.924;2022-09-09T15:58:32;4.07;;;1.35;;
24547;SDS011;12713;51.624;4.924;2022-09-09T16:01:02;7.40;;;3.90;;
24547;SDS011;12713;51.624;4.924;2022-09-09T16:03:29;7.60;;;1.65;;
24547;SDS011;12713;51.624;4.924;2022-09-09T16:05:55;3.53;;;1.52;;
24547;SDS011;12713;51.624;4.924;2022-09-09T16:08:21;2.92;;;1.50;;
24547;SDS011;12713;51.624;4.924;2022-09-09T16:10:48;4.40;;;1.60;;
24547;SDS011;12713;51.624;4.924;2022-09-09T16:13:14;4.07;;;1.27;;
24547;SDS011;12713;51.624;4.924;2022-09-09T16:15:40;4.50;;;1.60;;
24547;SDS011;12713;51.624;4.924;2022-09-09T16:18:05;5.47;;;1.73;;
24547;SDS011;12713;51.624;4.924;2022-09-09T16:20:31;4.85;;;1.20;;
24547;SDS011;12713;51.624;4.924;2022-09-09T16:22:57;4.20;;;1.50;;
24547;SDS011;12713;51.624;4.924;2022-09-09T16:25:26;7.35;;;1.58;;
24547;SDS011;12713;51.624;4.924;2022-09-09T16:27:52;7.60;;;1.63;;
24547;SDS011;12713;51.624;4.924;2022-09-09T16:30:18;7.22;;;1.70;;
24547;SDS011;12713;51.624;4.924;2022-09-09T16:32:44;9.30;;;1.65;;
24547;SDS011;12713;51.624;4.924;2022-09-09T16:35:10;6.45;;;1.80;;
24547;SDS011;12713;51.624;4.924;2022-09-09T16:37:36;4.55;;;1.80;;
24547;SDS011;12713;51.624;4.924;2022-09-09T16:40:02;4.32;;;1.73;;
24547;SDS011;12713;51.624;4.924;2022-09-09T16:42:33;5.78;;;1.95;;
24547;SDS011;12713;51.624;4.924;2022-09-09T16:44:59;6.18;;;1.80;;
24547;SDS011;12713;51.624;4.924;2022-09-09T16:47:25;3.78;;;2.00;;
24547;SDS011;12713;51.624;4.924;2022-09-09T16:49:53;6.40;;;2.42;;
24547;SDS011;12713;51.624;4.924;2022-09-09T16:54:55;6.35;;;2.45;;
24547;SDS011;12713;51.624;4.924;2022-09-09T16:57:21;6.22;;;1.75;;
24547;SDS011;12713;51.624;4.924;2022-09-09T16:59:51;4.80;;;2.15;;
24547;SDS011;12713;51.624;4.924;2022-09-09T17:02:19;9.95;;;2.40;;
24547;SDS011;12713;51.624;4.924;2022-09-09T17:04:47;3.67;;;2.05;;